sensor_id;sensor_type;location;lat;lon;timestamp;pressure;altitude;pressure_sealevel;temperature;humidity
6136;BME280;24008;42.664;23.372;2023-01-30T00:00:50;94991.03;;;-0.59;87.39
6136;BME280;24008;42.664;23.372;2023-01-30T00:03:18;94987.09;;;-0.65;86.75
6136;BME280;24008;42.664;23.372;2023-01-30T00:05:47;94991.19;;;-0.62;87.02
6136;BME280;24008;42.664;23.372;2023-01-30T00:08:13;94981.13;;;-0.62;86.76
6136;BME280;24008;42.664;23.372;2023-01-30T00:10:40;94992.94;;;-0.64;86.88
6136;BME280;24008;42.664;23.372;2023-01-30T00:13:07;94976.25;;;-0.65;86.68
6136;BME280;24008;42.664;23.372;2023-01-30T00:15:34;94881.97;;;-1.27;87.39
6136;BME280;24008;42.664;23.372;2023-01-30T00:18:01;94942.88;;;-0.86;87.15
6136;BME280;24008;42.664;23.372;2023-01-30T00:20:28;94925.28;;;-1.05;86.58
6136;BME280;24008;42.664;23.372;2023-01-30T00:22:56;94986.41;;;-0.68;86.56
6136;BME280;24008;42.664;23.372;2023-01-30T00:25:23;94983.16;;;-0.70;86.99
6136;BME280;24008;42.664;23.372;2023-01-30T00:27:50;94955.44;;;-0.86;87.01
6136;BME280;24008;42.664;23.372;2023-01-30T00:30:17;94979.16;;;-0.75;87.09
6136;BME280;24008;42.664;23.372;2023-01-30T00:32:44;94946.00;;;-1.00;87.29
6136;BME280;24008;42.664;23.372;2023-01-30T00:35:10;94985.00;;;-0.74;87.75
6136;BME280;24008;42.664;23.372;2023-01-30T00:37:37;94926.47;;;-1.12;88.08
6136;BME280;24008;42.664;23.372;2023-01-30T00:40:06;94974.09;;;-0.73;88.87
6136;BME280;24008;42.664;23.372;2023-01-30T00:42:33;94975.03;;;-0.76;88.30
6136;BME280;24008;42.664;23.372;2023-01-30T00:45:17;94965.25;;;-0.82;88.51
6136;BME280;24008;42.664;23.372;2023-01-30T00:48:01;94965.41;;;-0.85;88.63
6136;BME280;24008;42.664;23.372;2023-01-30T00:50:28;94966.47;;;-0.90;87.95
6136;BME280;24008;42.664;23.372;2023-01-30T00:53:08;94967.53;;;-0.96;88.47
6136;BME280;24008;42.664;23.372;2023-01-30T00:55:36;94958.47;;;-0.98;89.25
6136;BME280;24008;42.664;23.372;2023-01-30T00:58:03;94886.97;;;-1.46;89.69
6136;BME280;24008;42.664;23.372;2023-01-30T01:00:31;94971.06;;;-1.00;89.78
6136;BME280;24008;42.664;23.372;2023-01-30T01:02:57;94967.75;;;-1.00;90.06
6136;BME280;24008;42.664;23.372;2023-01-30T01:05:24;94935.38;;;-1.25;89.80
6136;BME280;24008;42.664;23.372;2023-01-30T01:07:51;94967.81;;;-1.02;89.49
6136;BME280;24008;42.664;23.372;2023-01-30T01:10:18;94934.91;;;-1.15;89.62
6136;BME280;24008;42.664;23.372;2023-01-30T01:12:49;94857.53;;;-1.61;90.00
6136;BME280;24008;42.664;23.372;2023-01-30T01:15:17;94867.50;;;-1.60;89.72
6136;BME280;24008;42.664;23.372;2023-01-30T01:17:44;94961.16;;;-1.03;89.31
6136;BME280;24008;42.664;23.372;2023-01-30T01:20:11;94967.69;;;-0.99;89.74
6136;BME280;24008;42.664;23.372;2023-01-30T01:22:38;94916.81;;;-1.21;90.18
6136;BME280;24008;42.664;23.372;2023-01-30T01:25:06;94914.38;;;-1.23;89.93
6136;BME280;24008;42.664;23.372;2023-01-30T01:27:32;94945.25;;;-1.02;89.61
6136;BME280;24008;42.664;23.372;2023-01-30T01:30:01;94948.56;;;-1.01;89.75
6136;BME280;24008;42.664;23.372;2023-01-30T01:32:27;94912.69;;;-1.22;89.73
6136;BME280;24008;42.664;23.372;2023-01-30T01:34:54;94939.47;;;-1.04;90.17
6136;BME280;24008;42.664;23.372;2023-01-30T01:37:21;94938.78;;;-1.08;90.20
6136;BME280;24008;42.664;23.372;2023-01-30T01:39:47;94945.38;;;-1.05;90.32
6136;BME280;24008;42.664;23.372;2023-01-30T01:42:33;94921.09;;;-1.23;90.07
6136;BME280;24008;42.664;23.372;2023-01-30T01:45:12;94715.78;;;-2.43;90.02
6136;BME280;24008;42.664;23.372;2023-01-30T01:47:45;94943.53;;;-1.01;90.13
6136;BME280;24008;42.664;23.372;2023-01-30T01:50:19;94873.00;;;-1.52;89.61
6136;BME280;24008;42.664;23.372;2023-01-30T01:52:50;94944.38;;;-1.01;89.49
6136;BME280;24008;42.664;23.372;2023-01-30T01:55:19;94909.31;;;-1.21;89.51
6136;BME280;24008;42.664;23.372;2023-01-30T01:57:52;94913.28;;;-1.17;89.07
6136;BME280;24008;42.664;23.372;2023-01-30T02:00:22;94949.91;;;-0.94;89.69
6136;BME280;24008;42.664;23.372;2023-01-30T02:02:53;94858.66;;;-1.48;89.11
6136;BME280;24008;42.664;23.372;2023-01-30T02:05:22;94942.19;;;-0.90;89.21
6136;BME280;24008;42.664;23.372;2023-01-30T02:07:54;94920.75;;;-1.16;88.82
6136;BME280;24008;42.664;23.372;2023-01-30T02:10:22;94950.88;;;-0.97;89.10
6136;BME280;24008;42.664;23.372;2023-01-30T02:12:50;94945.78;;;-0.95;88.67
6136;BME280;24008;42.664;23.372;2023-01-30T02:15:18;94904.47;;;-1.26;88.83
6136;BME280;24008;42.664;23.372;2023-01-30T02:17:46;94915.84;;;-1.19;89.06
6136;BME280;24008;42.664;23.372;2023-01-30T02:20:20;94922.44;;;-1.16;89.02
6136;BME280;24008;42.664;23.372;2023-01-30T02:23:15;94944.25;;;-0.98;88.96
6136;BME280;24008;42.664;23.372;2023-01-30T02:26:11;94945.88;;;-0.97;88.30
6136;BME280;24008;42.664;23.372;2023-01-30T02:29:20;94802.19;;;-1.94;88.44
6136;BME280;24008;42.664;23.372;2023-01-30T02:32:03;94944.63;;;-1.07;88.22
6136;BME280;24008;42.664;23.372;2023-01-30T02:34:40;94946.94;;;-1.02;88.64
6136;BME280;24008;42.664;23.372;2023-01-30T02:37:17;94915.09;;;-1.21;88.49
6136;BME280;24008;42.664;23.372;2023-01-30T02:39:59;94871.13;;;-1.47;88.03
6136;BME280;24008;42.664;23.372;2023-01-30T02:42:35;94861.09;;;-1.47;88.22
6136;BME280;24008;42.664;23.372;2023-01-30T02:45:09;94931.06;;;-1.03;88.40
6136;BME280;24008;42.664;23.372;2023-01-30T02:47:41;94926.19;;;-1.06;88.05
6136;BME280;24008;42.664;23.372;2023-01-30T02:50:14;94884.66;;;-1.32;88.04
6136;BME280;24008;42.664;23.372;2023-01-30T02:52:42;94930.53;;;-1.10;88.09
6136;BME280;24008;42.664;23.372;2023-01-30T02:55:17;94936.38;;;-1.09;88.55
6136;BME280;24008;42.664;23.372;2023-01-30T02:57:44;94896.94;;;-1.26;87.91
6136;BME280;24008;42.664;23.372;2023-01-30T03:00:12;94861.22;;;-1.50;88.51
6136;BME280;24008;42.664;23.372;2023-01-30T03:02:56;94936.09;;;-1.03;87.84
6136;BME280;24008;42.664;23.372;2023-01-30T03:05:49;94901.63;;;-1.18;88.25
6136;BME280;24008;42.664;23.372;2023-01-30T03:08:24;94928.09;;;-1.11;87.62
6136;BME280;24008;42.664;23.372;2023-01-30T03:10:57;94877.38;;;-1.36;87.38
6136;BME280;24008;42.664;23.372;2023-01-30T03:13:32;94900.00;;;-1.19;87.53
6136;BME280;24008;42.664;23.372;2023-01-30T03:16:02;94927.06;;;-1.07;87.49
6136;BME280;24008;42.664;23.372;2023-01-30T03:18:33;94873.16;;;-1.36;87.35
6136;BME280;24008;42.664;23.372;2023-01-30T03:21:03;94918.66;;;-1.06;87.38
6136;BME280;24008;42.664;23.372;2023-01-30T03:23:30;94911.00;;;-1.03;87.28
6136;BME280;24008;42.664;23.372;2023-01-30T03:25:57;94906.72;;;-1.01;87.52
6136;BME280;24008;42.664;23.372;2023-01-30T03:28:25;94905.22;;;-1.05;87.37
6136;BME280;24008;42.664;23.372;2023-01-30T03:30:52;94899.34;;;-1.04;87.00
6136;BME280;24008;42.664;23.372;2023-01-30T03:33:19;94850.47;;;-1.33;86.94
6136;BME280;24008;42.664;23.372;2023-01-30T03:35:47;94858.66;;;-1.29;87.52
6136;BME280;24008;42.664;23.372;2023-01-30T03:38:14;94890.94;;;-1.03;86.78
6136;BME280;24008;42.664;23.372;2023-01-30T03:40:41;94824.22;;;-1.45;86.33
6136;BME280;24008;42.664;23.372;2023-01-30T03:43:08;94887.53;;;-1.02;86.23
6136;BME280;24008;42.664;23.372;2023-01-30T03:45:35;94892.56;;;-1.02;86.07
6136;BME280;24008;42.664;23.372;2023-01-30T03:48:02;94798.22;;;-1.61;86.18
6136;BME280;24008;42.664;23.372;2023-01-30T03:50:28;94888.72;;;-1.09;86.04
6136;BME280;24008;42.664;23.372;2023-01-30T03:52:57;94896.34;;;-1.12;86.19
6136;BME280;24008;42.664;23.372;2023-01-30T03:55:23;94895.66;;;-1.16;86.63
6136;BME280;24008;42.664;23.372;2023-01-30T03:58:05;94823.28;;;-1.61;86.52
6136;BME280;24008;42.664;23.372;2023-01-30T04:00:32;94893.22;;;-1.17;86.61
6136;BME280;24008;42.664;23.372;2023-01-30T04:02:59;94833.72;;;-1.51;86.34
6136;BME280;24008;42.664;23.372;2023-01-30T04:05:25;94779.22;;;-1.85;86.92
6136;BME280;24008;42.664;23.372;2023-01-30T04:07:56;94883.88;;;-1.14;86.78
6136;BME280;24008;42.664;23.372;2023-01-30T04:10:23;94883.59;;;-1.08;86.88
6136;BME280;24008;42.664;23.372;2023-01-30T04:12:50;94887.97;;;-1.11;86.41
6136;BME280;24008;42.664;23.372;2023-01-30T04:15:17;94877.25;;;-1.15;87.13
6136;BME280;24008;42.664;23.372;2023-01-30T04:17:44;94832.91;;;-1.52;87.45
6136;BME280;24008;42.664;23.372;2023-01-30T04:20:12;94888.09;;;-1.14;87.54
6136;BME280;24008;42.664;23.372;2023-01-30T04:22:39;94883.94;;;-1.15;87.00
6136;BME280;24008;42.664;23.372;2023-01-30T04:25:07;94891.34;;;-1.12;87.44
6136;BME280;24008;42.664;23.372;2023-01-30T04:27:34;94883.06;;;-1.14;87.25
6136;BME280;24008;42.664;23.372;2023-01-30T04:30:01;94886.53;;;-1.17;86.87
6136;BME280;24008;42.664;23.372;2023-01-30T04:32:28;94887.47;;;-1.19;87.64
6136;BME280;24008;42.664;23.372;2023-01-30T04:34:54;94894.03;;;-1.17;88.01
6136;BME280;24008;42.664;23.372;2023-01-30T04:37:21;94883.94;;;-1.15;87.65
6136;BME280;24008;42.664;23.372;2023-01-30T04:39:48;94885.50;;;-1.13;88.21
6136;BME280;24008;42.664;23.372;2023-01-30T04:42:16;94885.50;;;-1.13;88.07
6136;BME280;24008;42.664;23.372;2023-01-30T04:44:43;94839.53;;;-1.51;87.66
6136;BME280;24008;42.664;23.372;2023-01-30T04:47:09;94793.22;;;-1.61;87.56
6136;BME280;24008;42.664;23.372;2023-01-30T04:49:36;94881.31;;;-1.12;88.34
6136;BME280;24008;42.664;23.372;2023-01-30T04:52:03;94872.97;;;-1.13;87.65
6136;BME280;24008;42.664;23.372;2023-01-30T04:54:30;94872.34;;;-1.18;87.69
6136;BME280;24008;42.664;23.372;2023-01-30T04:56:57;94804.84;;;-1.60;87.84
6136;BME280;24008;42.664;23.372;2023-01-30T04:59:25;94847.00;;;-1.30;87.99
6136;BME280;24008;42.664;23.372;2023-01-30T05:01:51;94768.06;;;-1.78;88.19
6136;BME280;24008;42.664;23.372;2023-01-30T05:04:18;94865.03;;;-1.22;88.64
6136;BME280;24008;42.664;23.372;2023-01-30T05:06:45;94637.28;;;-2.61;88.22
6136;BME280;24008;42.664;23.372;2023-01-30T05:09:12;94861.66;;;-1.21;89.16
6136;BME280;24008;42.664;23.372;2023-01-30T05:11:39;94857.44;;;-1.21;89.02
6136;BME280;24008;42.664;23.372;2023-01-30T05:14:05;94855.00;;;-1.22;88.71
6136;BME280;24008;42.664;23.372;2023-01-30T05:16:33;94870.06;;;-1.22;89.12
6136;BME280;24008;42.664;23.372;2023-01-30T05:19:00;94869.91;;;-1.19;89.07
6136;BME280;24008;42.664;23.372;2023-01-30T05:21:27;94867.56;;;-1.22;89.46
6136;BME280;24008;42.664;23.372;2023-01-30T05:23:54;94794.34;;;-1.68;90.08
6136;BME280;24008;42.664;23.372;2023-01-30T05:26:21;94874.19;;;-1.21;90.13
6136;BME280;24008;42.664;23.372;2023-01-30T05:28:52;94862.19;;;-1.33;89.80
6136;BME280;24008;42.664;23.372;2023-01-30T05:31:19;94875.28;;;-1.27;90.05
6136;BME280;24008;42.664;23.372;2023-01-30T05:33:49;94878.72;;;-1.29;89.86
6136;BME280;24008;42.664;23.372;2023-01-30T05:36:19;94875.44;;;-1.31;90.48
6136;BME280;24008;42.664;23.372;2023-01-30T05:38:46;94843.41;;;-1.43;90.45
6136;BME280;24008;42.664;23.372;2023-01-30T05:41:14;94870.13;;;-1.24;90.27
6136;BME280;24008;42.664;23.372;2023-01-30T05:43:41;94869.31;;;-1.24;91.13
6136;BME280;24008;42.664;23.372;2023-01-30T05:46:10;94889.38;;;-1.24;90.83
6136;BME280;24008;42.664;23.372;2023-01-30T05:48:37;94840.22;;;-1.47;91.01
6136;BME280;24008;42.664;23.372;2023-01-30T05:51:05;94862.03;;;-1.30;92.01
6136;BME280;24008;42.664;23.372;2023-01-30T05:53:33;94875.06;;;-1.22;92.43
6136;BME280;24008;42.664;23.372;2023-01-30T05:56:01;94850.53;;;-1.34;94.30
6136;BME280;24008;42.664;23.372;2023-01-30T05:58:29;94849.91;;;-1.39;94.16
6136;BME280;24008;42.664;23.372;2023-01-30T06:01:00;94855.56;;;-1.34;94.05
6136;BME280;24008;42.664;23.372;2023-01-30T06:03:27;94836.28;;;-1.53;93.55
6136;BME280;24008;42.664;23.372;2023-01-30T06:05:54;94826.78;;;-1.65;92.80
6136;BME280;24008;42.664;23.372;2023-01-30T06:08:22;94742.34;;;-2.21;92.97
6136;BME280;24008;42.664;23.372;2023-01-30T06:10:49;94857.16;;;-1.52;93.65
6136;BME280;24008;42.664;23.372;2023-01-30T06:13:16;94889.16;;;-1.38;93.94
6136;BME280;24008;42.664;23.372;2023-01-30T06:15:43;94830.44;;;-1.72;93.94
6136;BME280;24008;42.664;23.372;2023-01-30T06:18:09;94884.66;;;-1.32;94.16
6136;BME280;24008;42.664;23.372;2023-01-30T06:20:37;94877.03;;;-1.29;94.39
6136;BME280;24008;42.664;23.372;2023-01-30T06:23:03;94873.63;;;-1.28;94.99
6136;BME280;24008;42.664;23.372;2023-01-30T06:25:32;94877.50;;;-1.21;95.06
6136;BME280;24008;42.664;23.372;2023-01-30T06:27:58;94855.28;;;-1.28;94.71
6136;BME280;24008;42.664;23.372;2023-01-30T06:30:25;94866.06;;;-1.26;94.38
6136;BME280;24008;42.664;23.372;2023-01-30T06:32:52;94842.69;;;-1.46;94.79
6136;BME280;24008;42.664;23.372;2023-01-30T06:35:18;94837.91;;;-1.52;95.35
6136;BME280;24008;42.664;23.372;2023-01-30T06:37:45;94870.84;;;-1.40;94.80
6136;BME280;24008;42.664;23.372;2023-01-30T06:40:12;94880.13;;;-1.42;94.86
6136;BME280;24008;42.664;23.372;2023-01-30T06:42:44;94874.44;;;-1.46;94.89
6136;BME280;24008;42.664;23.372;2023-01-30T06:45:12;94842.09;;;-1.71;94.79
6136;BME280;24008;42.664;23.372;2023-01-30T06:47:44;94878.63;;;-1.47;95.75
6136;BME280;24008;42.664;23.372;2023-01-30T06:50:11;94814.41;;;-2.07;95.72
6136;BME280;24008;42.664;23.372;2023-01-30T06:52:39;94887.22;;;-1.52;96.49
6136;BME280;24008;42.664;23.372;2023-01-30T06:55:07;94796.88;;;-2.07;96.20
6136;BME280;24008;42.664;23.372;2023-01-30T06:57:34;94698.22;;;-2.82;96.59
6136;BME280;24008;42.664;23.372;2023-01-30T07:00:03;94890.59;;;-1.53;97.16
6136;BME280;24008;42.664;23.372;2023-01-30T07:02:30;94883.09;;;-1.53;97.41
6136;BME280;24008;42.664;23.372;2023-01-30T07:05:00;94881.50;;;-1.56;97.03
6136;BME280;24008;42.664;23.372;2023-01-30T07:07:27;94884.53;;;-1.48;97.33
6136;BME280;24008;42.664;23.372;2023-01-30T07:09:54;94839.66;;;-1.72;97.35
6136;BME280;24008;42.664;23.372;2023-01-30T07:12:21;94895.78;;;-1.37;97.32
6136;BME280;24008;42.664;23.372;2023-01-30T07:14:47;94894.84;;;-1.35;96.82
6136;BME280;24008;42.664;23.372;2023-01-30T07:17:16;94723.84;;;-2.37;97.29
6136;BME280;24008;42.664;23.372;2023-01-30T07:19:42;94891.25;;;-1.29;96.43
6136;BME280;24008;42.664;23.372;2023-01-30T07:22:09;94891.31;;;-1.31;96.63
6136;BME280;24008;42.664;23.372;2023-01-30T07:24:37;94895.38;;;-1.28;96.61
6136;BME280;24008;42.664;23.372;2023-01-30T07:27:06;94802.66;;;-1.86;96.03
6136;BME280;24008;42.664;23.372;2023-01-30T07:29:33;94902.72;;;-1.24;96.08
6136;BME280;24008;42.664;23.372;2023-01-30T07:32:00;94775.00;;;-2.03;95.67
6136;BME280;24008;42.664;23.372;2023-01-30T07:34:29;94902.16;;;-1.30;95.04
6136;BME280;24008;42.664;23.372;2023-01-30T07:36:55;94903.91;;;-1.32;94.49
6136;BME280;24008;42.664;23.372;2023-01-30T07:39:23;94910.56;;;-1.31;95.02
6136;BME280;24008;42.664;23.372;2023-01-30T07:41:50;94918.78;;;-1.28;94.63
6136;BME280;24008;42.664;23.372;2023-01-30T07:44:16;94798.50;;;-2.06;94.85
6136;BME280;24008;42.664;23.372;2023-01-30T07:46:43;94910.84;;;-1.19;94.45
6136;BME280;24008;42.664;23.372;2023-01-30T07:49:10;94912.34;;;-1.15;94.26
6136;BME280;24008;42.664;23.372;2023-01-30T07:51:38;94909.66;;;-1.10;93.74
6136;BME280;24008;42.664;23.372;2023-01-30T07:54:05;94868.97;;;-1.35;93.40
6136;BME280;24008;42.664;23.372;2023-01-30T07:56:31;94847.47;;;-1.41;93.28
6136;BME280;24008;42.664;23.372;2023-01-30T07:58:58;94908.31;;;-0.98;92.60
6136;BME280;24008;42.664;23.372;2023-01-30T08:01:26;94851.34;;;-1.15;92.43
6136;BME280;24008;42.664;23.372;2023-01-30T08:03:52;94887.88;;;-0.91;91.97
6136;BME280;24008;42.664;23.372;2023-01-30T08:06:19;94888.50;;;-0.86;91.24
6136;BME280;24008;42.664;23.372;2023-01-30T08:08:47;94814.91;;;-1.22;90.78
6136;BME280;24008;42.664;23.372;2023-01-30T08:11:16;94881.31;;;-0.75;90.39
6136;BME280;24008;42.664;23.372;2023-01-30T08:13:43;94812.97;;;-1.17;89.89
6136;BME280;24008;42.664;23.372;2023-01-30T08:16:10;94667.03;;;-2.35;89.22
6136;BME280;24008;42.664;23.372;2023-01-30T08:18:37;94888.66;;;-0.72;89.13
6136;BME280;24008;42.664;23.372;2023-01-30T08:21:05;94884.94;;;-0.63;88.99
6136;BME280;24008;42.664;23.372;2023-01-30T08:23:32;94677.28;;;-1.83;88.61
6136;BME280;24008;42.664;23.372;2023-01-30T08:26:02;94813.50;;;-0.92;87.72
6136;BME280;24008;42.664;23.372;2023-01-30T08:28:30;94802.13;;;-0.99;87.30
6136;BME280;24008;42.664;23.372;2023-01-30T08:30:57;94811.72;;;-0.90;87.16
6136;BME280;24008;42.664;23.372;2023-01-30T08:33:24;94869.31;;;-0.51;87.00
6136;BME280;24008;42.664;23.372;2023-01-30T08:35:51;94749.59;;;-1.21;87.10
6136;BME280;24008;42.664;23.372;2023-01-30T08:38:18;94860.59;;;-0.44;86.90
6136;BME280;24008;42.664;23.372;2023-01-30T08:40:47;94754.66;;;-1.03;86.57
6136;BME280;24008;42.664;23.372;2023-01-30T08:43:15;94692.00;;;-1.39;86.43
6136;BME280;24008;42.664;23.372;2023-01-30T08:45:42;94850.13;;;-0.34;86.68
6136;BME280;24008;42.664;23.372;2023-01-30T08:48:09;94849.84;;;-0.28;85.99
6136;BME280;24008;42.664;23.372;2023-01-30T08:50:36;94753.00;;;-0.86;85.71
6136;BME280;24008;42.664;23.372;2023-01-30T08:53:04;94806.09;;;-0.59;84.38
6136;BME280;24008;42.664;23.372;2023-01-30T08:55:31;94852.34;;;-0.28;84.35
6136;BME280;24008;42.664;23.372;2023-01-30T08:57:58;94849.78;;;-0.27;84.38
6136;BME280;24008;42.664;23.372;2023-01-30T09:00:27;94728.50;;;-0.98;83.73
6136;BME280;24008;42.664;23.372;2023-01-30T09:02:55;94844.06;;;-0.30;83.29
6136;BME280;24008;42.664;23.372;2023-01-30T09:05:22;94841.34;;;-0.26;83.85
6136;BME280;24008;42.664;23.372;2023-01-30T09:07:50;94832.94;;;-0.25;83.34
6136;BME280;24008;42.664;23.372;2023-01-30T09:10:17;94836.84;;;-0.19;82.69
6136;BME280;24008;42.664;23.372;2023-01-30T09:12:44;94802.66;;;-0.39;82.87
6136;BME280;24008;42.664;23.372;2023-01-30T09:15:11;94829.84;;;-0.13;82.53
6136;BME280;24008;42.664;23.372;2023-01-30T09:17:39;94832.91;;;-0.08;82.83
6136;BME280;24008;42.664;23.372;2023-01-30T09:20:10;94798.81;;;-0.29;82.15
6136;BME280;24008;42.664;23.372;2023-01-30T09:22:37;94826.25;;;-0.09;82.30
6136;BME280;24008;42.664;23.372;2023-01-30T09:25:05;94824.63;;;-0.10;82.07
6136;BME280;24008;42.664;23.372;2023-01-30T09:27:33;94810.38;;;-0.09;81.85
6136;BME280;24008;42.664;23.372;2023-01-30T09:30:01;94823.19;;;-0.14;81.25
6136;BME280;24008;42.664;23.372;2023-01-30T09:32:28;94763.34;;;-0.57;81.18
6136;BME280;24008;42.664;23.372;2023-01-30T09:34:56;94749.19;;;-0.76;81.00
6136;BME280;24008;42.664;23.372;2023-01-30T09:37:23;94826.63;;;-0.33;80.71
6136;BME280;24008;42.664;23.372;2023-01-30T09:39:50;94817.53;;;-0.36;82.07
6136;BME280;24008;42.664;23.372;2023-01-30T09:42:42;94819.97;;;-0.34;81.77
6136;BME280;24008;42.664;23.372;2023-01-30T09:45:34;94758.91;;;-0.69;82.03
6136;BME280;24008;42.664;23.372;2023-01-30T09:48:10;94692.03;;;-1.05;82.44
6136;BME280;24008;42.664;23.372;2023-01-30T09:51:01;94803.38;;;-0.20;82.51
6136;BME280;24008;42.664;23.372;2023-01-30T09:53:34;94799.22;;;-0.21;82.15
6136;BME280;24008;42.664;23.372;2023-01-30T09:56:02;94816.94;;;-0.24;81.67
6136;BME280;24008;42.664;23.372;2023-01-30T09:58:40;94793.78;;;-0.29;81.50
6136;BME280;24008;42.664;23.372;2023-01-30T10:01:15;94730.97;;;-0.62;81.96
6136;BME280;24008;42.664;23.372;2023-01-30T10:03:53;94694.03;;;-0.94;82.06
6136;BME280;24008;42.664;23.372;2023-01-30T10:06:22;94790.25;;;-0.25;81.74
6136;BME280;24008;42.664;23.372;2023-01-30T10:08:51;94631.09;;;-1.24;81.77
6136;BME280;24008;42.664;23.372;2023-01-30T10:11:34;94772.06;;;-0.13;82.08
6136;BME280;24008;42.664;23.372;2023-01-30T10:14:19;94643.66;;;-0.90;81.76
6136;BME280;24008;42.664;23.372;2023-01-30T10:16:56;94652.66;;;-0.86;82.01
6136;BME280;24008;42.664;23.372;2023-01-30T10:19:38;94177.38;;;-3.74;81.85
6136;BME280;24008;42.664;23.372;2023-01-30T10:22:19;94754.00;;;-0.04;81.93
6136;BME280;24008;42.664;23.372;2023-01-30T10:25:00;94752.56;;;0.08;81.70
6136;BME280;24008;42.664;23.372;2023-01-30T10:27:30;94750.88;;;0.09;80.49
6136;BME280;24008;42.664;23.372;2023-01-30T10:30:02;94770.31;;;0.05;80.11
6136;BME280;24008;42.664;23.372;2023-01-30T10:32:34;94737.50;;;0.08;80.15
6136;BME280;24008;42.664;23.372;2023-01-30T10:35:05;94675.59;;;-0.26;79.90
6136;BME280;24008;42.664;23.372;2023-01-30T10:37:41;94728.56;;;0.03;79.90
6136;BME280;24008;42.664;23.372;2023-01-30T10:40:17;94722.09;;;-0.02;79.31
6136;BME280;24008;42.664;23.372;2023-01-30T10:42:49;94720.75;;;-0.09;79.08
6136;BME280;24008;42.664;23.372;2023-01-30T10:45:21;94657.56;;;-0.50;78.54
6136;BME280;24008;42.664;23.372;2023-01-30T10:48:01;94713.38;;;-0.12;78.75
6136;BME280;24008;42.664;23.372;2023-01-30T10:50:35;94698.97;;;-0.08;79.02
6136;BME280;24008;42.664;23.372;2023-01-30T10:53:13;94700.81;;;-0.12;78.94
6136;BME280;24008;42.664;23.372;2023-01-30T10:55:46;94663.03;;;-0.26;78.83
6136;BME280;24008;42.664;23.372;2023-01-30T10:58:18;94681.97;;;-0.03;78.23
6136;BME280;24008;42.664;23.372;2023-01-30T11:00:52;94615.06;;;-0.37;77.61
6136;BME280;24008;42.664;23.372;2023-01-30T11:03:24;94666.88;;;-0.03;77.57
6136;BME280;24008;42.664;23.372;2023-01-30T11:05:57;94666.63;;;0.02;77.87
6136;BME280;24008;42.664;23.372;2023-01-30T11:08:28;94657.25;;;0.21;77.89
6136;BME280;24008;42.664;23.372;2023-01-30T11:10:56;94560.78;;;-0.24;77.64
6136;BME280;24008;42.664;23.372;2023-01-30T11:13:27;94540.97;;;-0.13;77.09
6136;BME280;24008;42.664;23.372;2023-01-30T11:15:57;94615.06;;;0.57;75.77
6136;BME280;24008;42.664;23.372;2023-01-30T11:18:25;94574.03;;;0.41;75.31
6136;BME280;24008;42.664;23.372;2023-01-30T11:21:04;94632.63;;;1.03;73.82
6136;BME280;24008;42.664;23.372;2023-01-30T11:23:34;94561.81;;;0.65;72.88
6136;BME280;24008;42.664;23.372;2023-01-30T11:26:05;94561.38;;;0.58;72.51
6136;BME280;24008;42.664;23.372;2023-01-30T11:28:39;94482.88;;;0.23;73.07
6136;BME280;24008;42.664;23.372;2023-01-30T11:31:16;94344.50;;;-0.18;72.64
6136;BME280;24008;42.664;23.372;2023-01-30T11:33:43;94600.44;;;1.66;71.53
6136;BME280;24008;42.664;23.372;2023-01-30T11:36:23;94423.94;;;0.43;70.15
6136;BME280;24008;42.664;23.372;2023-01-30T11:38:56;94548.34;;;1.24;70.41
6136;BME280;24008;42.664;23.372;2023-01-30T11:41:24;94598.72;;;1.67;70.38
6136;BME280;24008;42.664;23.372;2023-01-30T11:43:50;94524.41;;;1.45;70.20
6136;BME280;24008;42.664;23.372;2023-01-30T11:46:28;94590.47;;;2.06;69.63
6136;BME280;24008;42.664;23.372;2023-01-30T11:48:59;94280.00;;;0.25;68.62
6136;BME280;24008;42.664;23.372;2023-01-30T11:51:27;94574.63;;;2.31;68.42
6136;BME280;24008;42.664;23.372;2023-01-30T11:53:56;94497.78;;;1.97;68.19
6136;BME280;24008;42.664;23.372;2023-01-30T11:56:31;94561.06;;;2.46;67.74
6136;BME280;24008;42.664;23.372;2023-01-30T11:59:02;94557.13;;;2.42;67.01
6136;BME280;24008;42.664;23.372;2023-01-30T12:01:32;94493.34;;;2.00;67.18
6136;BME280;24008;42.664;23.372;2023-01-30T12:04:01;94552.28;;;2.39;67.64
6136;BME280;24008;42.664;23.372;2023-01-30T12:06:32;94412.91;;;1.70;67.13
6136;BME280;24008;42.664;23.372;2023-01-30T12:09:01;94367.53;;;1.58;66.49
6136;BME280;24008;42.664;23.372;2023-01-30T12:11:32;94466.84;;;2.07;66.15
6136;BME280;24008;42.664;23.372;2023-01-30T12:14:27;94519.00;;;2.46;65.41
6136;BME280;24008;42.664;23.372;2023-01-30T12:17:04;94443.75;;;1.74;66.21
6136;BME280;24008;42.664;23.372;2023-01-30T12:19:53;94355.50;;;1.22;66.75
6136;BME280;24008;42.664;23.372;2023-01-30T12:22:27;94458.34;;;1.96;66.20
6136;BME280;24008;42.664;23.372;2023-01-30T12:25:00;94516.09;;;2.13;66.33
6136;BME280;24008;42.664;23.372;2023-01-30T12:27:45;94482.84;;;1.67;65.88
6136;BME280;24008;42.664;23.372;2023-01-30T12:30:25;94280.25;;;0.49;66.53
6136;BME280;24008;42.664;23.372;2023-01-30T12:32:55;94503.00;;;1.94;66.87
6136;BME280;24008;42.664;23.372;2023-01-30T12:35:29;94483.88;;;1.77;67.47
6136;BME280;24008;42.664;23.372;2023-01-30T12:38:03;94186.09;;;-0.01;67.68
6136;BME280;24008;42.664;23.372;2023-01-30T12:40:45;94423.44;;;1.36;67.20
6136;BME280;24008;42.664;23.372;2023-01-30T12:43:41;94487.88;;;1.67;67.34
6136;BME280;24008;42.664;23.372;2023-01-30T12:46:25;94368.16;;;0.93;67.75
6136;BME280;24008;42.664;23.372;2023-01-30T12:49:10;94284.34;;;0.09;67.81
6136;BME280;24008;42.664;23.372;2023-01-30T12:51:49;94480.94;;;1.29;68.23
6136;BME280;24008;42.664;23.372;2023-01-30T12:54:31;94458.09;;;1.32;69.11
6136;BME280;24008;42.664;23.372;2023-01-30T12:57:10;94462.38;;;1.44;69.12
6136;BME280;24008;42.664;23.372;2023-01-30T12:59:47;94456.06;;;1.52;68.38
6136;BME280;24008;42.664;23.372;2023-01-30T13:02:36;94423.75;;;1.17;68.54
6136;BME280;24008;42.664;23.372;2023-01-30T13:05:19;94454.63;;;1.33;67.97
6136;BME280;24008;42.664;23.372;2023-01-30T13:08:02;94455.44;;;1.34;69.00
6136;BME280;24008;42.664;23.372;2023-01-30T13:10:36;94420.13;;;1.21;68.69
6136;BME280;24008;42.664;23.372;2023-01-30T13:13:13;94458.03;;;1.47;69.05
6136;BME280;24008;42.664;23.372;2023-01-30T13:15:47;94445.44;;;1.47;68.32
6136;BME280;24008;42.664;23.372;2023-01-30T13:18:21;94306.34;;;0.34;68.28
6136;BME280;24008;42.664;23.372;2023-01-30T13:21:00;94427.09;;;1.03;68.68